Time;durP1;ratioP1;P1;durP2;ratioP2;P2;SDS_P1;SDS_P2;PMS_P1;PMS_P2;Temp;Humidity;BMP_temperature;BMP_pressure;BME280_temperature;BME280_humidity;BME280_pressure;Samples;Min_cycle;Max_cycle;Signal;HPM_P1;HPM_P2
2022/07/26 00:01:56;;;;;;;9.63;7.15;;;27.80;49.60;;;;;;5033329;28;20097;-14
2022/07/26 00:04:22;;;;;;;11.40;7.18;;;27.90;50.60;;;;;;5033005;28;20052;-14
2022/07/26 00:06:47;;;;;;;9.63;7.40;;;27.80;50.90;;;;;;5033392;28;20036;-15
2022/07/26 00:09:14;;;;;;;12.50;7.90;;;27.80;52.20;;;;;;5033240;28;20503;-15
2022/07/26 00:11:40;;;;;;;12.27;7.63;;;27.70;52.60;;;;;;5033254;28;20026;-15
2022/07/26 00:14:07;;;;;;;10.23;8.13;;;27.60;53.10;;;;;;5033300;28;20033;-14
2022/07/26 00:16:34;;;;;;;12.43;7.95;;;27.50;53.90;;;;;;5032724;28;20029;-14
2022/07/26 00:19:00;;;;;;;10.20;7.18;;;27.40;53.80;;;;;;5033307;28;20026;-13
2022/07/26 00:21:27;;;;;;;10.65;7.63;;;27.30;53.70;;;;;;5033142;28;20036;-16
2022/07/26 00:23:53;;;;;;;11.45;7.40;;;27.30;53.60;;;;;;5032967;28;20045;-14
2022/07/26 00:26:19;;;;;;;10.10;7.22;;;27.30;53.50;;;;;;5033278;28;20036;-15
2022/07/26 00:28:45;;;;;;;13.68;7.70;;;27.30;53.70;;;;;;5033237;28;20037;-15
2022/07/26 00:31:11;;;;;;;10.18;7.82;;;27.30;53.40;;;;;;5033135;28;20388;-14
2022/07/26 00:33:38;;;;;;;14.15;7.60;;;27.30;53.70;;;;;;5032883;28;20488;-14
2022/07/26 00:36:05;;;;;;;10.32;7.30;;;27.30;53.50;;;;;;5033152;28;20017;-14
2022/07/26 00:38:31;;;;;;;10.35;7.50;;;27.30;53.90;;;;;;5032925;28;20026;-12
2022/07/26 00:40:57;;;;;;;10.20;7.07;;;27.20;54.10;;;;;;5033074;28;20018;-14
2022/07/26 00:43:23;;;;;;;11.57;7.35;;;27.10;54.20;;;;;;5035508;28;20432;-15
2022/07/26 00:45:49;;;;;;;10.95;7.07;;;27.10;54.60;;;;;;5036605;28;20045;-15
2022/07/26 00:48:16;;;;;;;9.15;6.95;;;27.00;54.40;;;;;;5036480;28;20484;-15
2022/07/26 00:50:42;;;;;;;7.95;6.63;;;27.00;54.50;;;;;;5036848;28;20030;-15
2022/07/26 00:53:09;;;;;;;11.13;7.55;;;26.90;54.10;;;;;;5036846;28;20095;-14
2022/07/26 00:55:35;;;;;;;11.90;6.40;;;26.90;53.60;;;;;;5036875;28;20537;-14
2022/07/26 00:58:01;;;;;;;9.30;6.68;;;26.90;53.30;;;;;;5036497;28;20026;-13
2022/07/26 01:00:27;;;;;;;8.75;6.57;;;26.90;53.40;;;;;;5036435;28;20164;-14
2022/07/26 01:02:59;;;;;;;8.93;6.65;;;26.90;53.50;;;;;;5036657;28;20022;-14
2022/07/26 01:05:25;;;;;;;8.18;6.68;;;26.90;54.10;;;;;;5036612;28;20474;-14
2022/07/26 01:07:52;;;;;;;9.43;7.90;;;26.80;54.40;;;;;;5036440;28;20030;-13
2022/07/26 01:10:18;;;;;;;11.93;7.53;;;26.60;55.20;;;;;;5036028;28;20036;-13
2022/07/26 01:12:45;;;;;;;9.93;7.32;;;26.50;55.90;;;;;;5036351;28;20028;-16
2022/07/26 01:15:13;;;;;;;10.85;7.70;;;26.40;56.30;;;;;;5036255;28;20079;-15
2022/07/26 01:17:40;;;;;;;9.00;6.78;;;26.30;56.30;;;;;;5036171;28;20501;-14
2022/07/26 01:20:09;;;;;;;8.13;6.80;;;26.20;56.60;;;;;;5036506;28;20366;-14
2022/07/26 01:22:35;;;;;;;11.75;8.05;;;26.20;56.80;;;;;;5036146;28;20378;-14
2022/07/26 01:25:01;;;;;;;10.43;7.20;;;26.10;57.20;;;;;;5034781;28;20599;-14
2022/07/26 01:27:27;;;;;;;11.00;8.00;;;26.00;57.50;;;;;;5036247;28;20034;-16
2022/07/26 01:29:53;;;;;;;9.32;7.28;;;25.90;57.80;;;;;;5036103;28;20078;-14
2022/07/26 01:32:19;;;;;;;10.00;7.32;;;25.90;57.80;;;;;;5035822;28;20420;-14
2022/07/26 01:34:45;;;;;;;12.32;8.25;;;25.90;58.50;;;;;;5036103;28;20101;-15
2022/07/26 01:37:11;;;;;;;10.98;8.20;;;25.80;58.70;;;;;;5035758;28;20124;-15
2022/07/26 01:39:37;;;;;;;10.20;8.68;;;25.80;59.60;;;;;;5035739;28;20117;-15
2022/07/26 01:42:04;;;;;;;11.75;9.30;;;25.70;59.40;;;;;;5035913;28;20033;-15
2022/07/26 01:44:30;;;;;;;11.77;8.52;;;25.60;60.70;;;;;;5035350;28;20145;-14
2022/07/26 01:46:56;;;;;;;10.68;8.07;;;25.50;61.10;;;;;;5035606;28;20114;-14
2022/07/26 01:49:22;;;;;;;10.82;8.32;;;25.40;60.80;;;;;;5035773;28;20026;-14
2022/07/26 01:51:48;;;;;;;10.40;8.10;;;25.40;61.00;;;;;;5035630;28;20021;-13
2022/07/26 01:54:14;;;;;;;11.38;8.20;;;25.40;61.10;;;;;;5033139;28;20037;-18
2022/07/26 01:56:40;;;;;;;9.35;7.47;;;25.50;60.70;;;;;;5035762;28;20026;-14
2022/07/26 01:59:06;;;;;;;11.88;8.20;;;25.50;60.40;;;;;;5035438;28;20029;-14
2022/07/26 02:01:32;;;;;;;10.82;8.20;;;25.50;60.30;;;;;;5035368;28;20045;-14
2022/07/26 02:03:58;;;;;;;9.85;7.72;;;25.50;60.60;;;;;;5035243;28;20069;-15
2022/07/26 02:06:24;;;;;;;9.15;7.07;;;25.50;60.10;;;;;;5035128;28;20096;-15
2022/07/26 02:08:50;;;;;;;11.57;7.95;;;25.50;60.00;;;;;;5035686;28;20407;-13
2022/07/26 02:11:18;;;;;;;9.35;7.30;;;25.40;60.80;;;;;;5035240;28;20021;-15
2022/07/26 02:13:44;;;;;;;10.20;7.00;;;25.40;60.70;;;;;;5035376;28;20037;-16
2022/07/26 02:16:13;;;;;;;9.98;7.40;;;25.40;60.30;;;;;;5035245;28;20030;-15
2022/07/26 02:18:41;;;;;;;9.40;7.80;;;25.30;60.90;;;;;;5034944;28;20026;-14
2022/07/26 02:21:08;;;;;;;9.65;7.03;;;25.20;60.70;;;;;;5034924;28;20138;-14
2022/07/26 02:23:34;;;;;;;8.63;6.88;;;25.20;60.60;;;;;;5035315;28;20033;-14
2022/07/26 02:26:01;;;;;;;10.75;7.65;;;25.10;60.60;;;;;;5035151;28;20095;-13
2022/07/26 02:28:27;;;;;;;10.65;7.97;;;25.00;61.10;;;;;;5034869;28;20029;-14
2022/07/26 02:30:53;;;;;;;8.52;6.60;;;25.00;61.30;;;;;;5034822;28;20028;-14
2022/07/26 02:33:20;;;;;;;9.35;7.03;;;24.90;61.10;;;;;;5034727;28;20033;-15
2022/07/26 02:35:47;;;;;;;9.48;7.53;;;24.90;60.90;;;;;;5034913;28;20030;-14
2022/07/26 02:38:15;;;;;;;8.57;6.22;;;24.90;61.00;;;;;;5033393;28;20021;-13
2022/07/26 02:40:42;;;;;;;8.60;6.00;;;24.90;61.00;;;;;;5035111;28;20095;-14
2022/07/26 02:43:09;;;;;;;10.25;6.63;;;24.80;60.90;;;;;;5034999;28;20519;-14
2022/07/26 02:45:36;;;;;;;8.30;6.43;;;24.80;61.10;;;;;;5034188;28;20125;-15
2022/07/26 02:48:02;;;;;;;8.07;5.80;;;24.70;61.20;;;;;;5034380;28;20370;-15
2022/07/26 02:50:29;;;;;;;9.20;6.30;;;24.60;61.30;;;;;;5034245;28;20506;-14
2022/07/26 02:52:55;;;;;;;8.15;6.05;;;24.60;61.30;;;;;;5034260;28;20036;-14
2022/07/26 02:55:24;;;;;;;6.57;5.40;;;24.50;61.20;;;;;;5033101;28;20044;-13
2022/07/26 02:57:51;;;;;;;7.25;5.13;;;24.50;61.00;;;;;;5034258;28;20370;-14
2022/07/26 03:00:20;;;;;;;7.57;4.70;;;24.50;60.70;;;;;;5033899;28;20167;-14
2022/07/26 03:02:48;;;;;;;5.95;4.75;;;24.50;60.50;;;;;;5034383;28;20026;-14
2022/07/26 03:05:14;;;;;;;7.15;4.70;;;24.50;60.30;;;;;;5033933;28;20044;-14
2022/07/26 03:07:40;;;;;;;7.90;4.90;;;24.40;60.30;;;;;;5034480;28;20033;-14
2022/07/26 03:10:07;;;;;;;6.55;4.95;;;24.40;60.30;;;;;;5033967;28;20029;-13
2022/07/26 03:12:33;;;;;;;7.03;4.18;;;24.40;60.50;;;;;;5033964;28;20351;-14
2022/07/26 03:15:00;;;;;;;8.70;5.00;;;24.30;60.60;;;;;;5032786;28;20033;-15
2022/07/26 03:17:25;;;;;;;6.10;4.53;;;24.30;60.70;;;;;;5034187;28;20025;-15
2022/07/26 03:19:51;;;;;;;6.47;4.50;;;24.30;60.70;;;;;;5034170;28;20481;-15
2022/07/26 03:22:17;;;;;;;5.68;4.30;;;24.20;60.60;;;;;;5033727;28;20432;-14
2022/07/26 03:24:43;;;;;;;9.25;5.20;;;24.20;60.50;;;;;;5033766;28;20419;-14
2022/07/26 03:27:09;;;;;;;7.28;4.85;;;24.20;60.40;;;;;;5032600;28;20026;-14
2022/07/26 03:29:35;;;;;;;7.60;5.22;;;24.20;60.40;;;;;;5033838;28;20078;-14
2022/07/26 03:32:01;;;;;;;10.95;5.65;;;24.20;60.50;;;;;;5033505;28;20033;-14
2022/07/26 03:34:27;;;;;;;6.55;4.68;;;24.10;60.70;;;;;;5033479;28;20025;-14
2022/07/26 03:36:52;;;;;;;8.15;4.45;;;24.00;60.80;;;;;;5033719;28;20025;-14
2022/07/26 03:39:18;;;;;;;7.57;4.72;;;24.00;60.90;;;;;;5033826;28;20026;-14
2022/07/26 03:41:44;;;;;;;7.50;4.50;;;23.90;60.90;;;;;;5033729;28;20420;-14
2022/07/26 03:44:10;;;;;;;6.72;4.30;;;23.80;61.10;;;;;;5033535;28;20517;-14
2022/07/26 03:46:36;;;;;;;6.82;5.13;;;23.80;61.10;;;;;;5033253;28;20045;-16
2022/07/26 03:49:02;;;;;;;7.95;5.32;;;23.80;61.20;;;;;;5033623;28;20385;-15
2022/07/26 03:51:28;;;;;;;7.85;4.70;;;23.70;61.40;;;;;;5033589;28;20029;-15
2022/07/26 03:53:54;;;;;;;9.00;4.80;;;23.70;61.60;;;;;;5033646;28;20109;-15
2022/07/26 03:56:32;;;;;;;7.43;4.70;;;23.60;61.80;;;;;;5033107;28;20059;-15
2022/07/26 03:59:05;;;;;;;9.20;4.28;;;23.60;61.90;;;;;;5033515;28;20075;-15
2022/07/26 04:01:31;;;;;;;13.48;4.32;;;23.50;62.10;;;;;;5033407;28;20026;-14
2022/07/26 04:03:58;;;;;;;7.25;3.97;;;23.50;62.00;;;;;;5033671;28;20029;-14
2022/07/26 04:06:24;;;;;;;7.18;4.40;;;23.50;62.00;;;;;;5033054;28;20087;-16
2022/07/26 04:08:50;;;;;;;6.28;4.07;;;23.50;62.20;;;;;;5031916;28;20034;-16
2022/07/26 04:11:15;;;;;;;5.20;3.75;;;23.40;62.20;;;;;;5033229;28;20022;-14
2022/07/26 04:13:41;;;;;;;4.90;3.63;;;23.40;62.20;;;;;;5033040;28;20025;-15
2022/07/26 04:16:08;;;;;;;5.72;3.42;;;23.40;62.40;;;;;;5033040;28;20112;-14
2022/07/26 04:18:34;;;;;;;6.95;4.00;;;23.40;62.50;;;;;;5038335;28;20460;-15
2022/07/26 04:20:59;;;;;;;7.97;4.10;;;23.40;62.60;;;;;;5039934;28;20116;-14
2022/07/26 04:23:25;;;;;;;8.82;3.90;;;23.40;62.60;;;;;;5039614;28;20464;-16
2022/07/26 04:25:51;;;;;;;5.90;3.63;;;23.30;62.70;;;;;;5039700;28;20033;-15
2022/07/26 04:28:17;;;;;;;6.18;4.03;;;23.30;62.80;;;;;;5039274;28;20043;-15
2022/07/26 04:30:44;;;;;;;7.28;4.05;;;23.30;62.80;;;;;;5039689;28;20109;-14
2022/07/26 04:33:10;;;;;;;13.23;5.22;;;23.30;62.80;;;;;;5038571;28;20071;-14
2022/07/26 04:35:35;;;;;;;15.60;5.43;;;23.30;62.90;;;;;;5039762;28;20029;-14
2022/07/26 04:38:02;;;;;;;7.00;4.20;;;23.30;63.10;;;;;;5039563;28;20029;-15
2022/07/26 04:40:32;;;;;;;9.60;4.65;;;23.30;63.10;;;;;;5039550;28;20473;-15
2022/07/26 04:43:00;;;;;;;6.18;3.95;;;23.30;63.00;;;;;;5039661;28;20120;-14
2022/07/26 04:45:27;;;;;;;7.45;3.88;;;23.40;63.10;;;;;;5039191;28;20191;-14
2022/07/26 04:47:53;;;;;;;7.45;4.10;;;23.40;63.10;;;;;;5039599;28;20017;-14
2022/07/26 04:50:20;;;;;;;6.40;3.80;;;23.50;62.80;;;;;;5039064;28;20464;-14
2022/07/26 04:52:48;;;;;;;8.15;3.85;;;23.60;62.80;;;;;;5039316;28;20098;-13
2022/07/26 04:55:15;;;;;;;6.15;3.67;;;23.60;62.60;;;;;;5038085;28;20056;-14
2022/07/26 04:57:41;;;;;;;6.97;3.80;;;23.70;62.50;;;;;;5039634;28;20105;-14
2022/07/26 05:00:11;;;;;;;10.88;4.50;;;23.80;62.40;;;;;;5039365;28;20025;-14
2022/07/26 05:02:37;;;;;;;7.15;4.35;;;23.90;62.10;;;;;;5039045;28;20028;-14
2022/07/26 05:05:05;;;;;;;11.35;4.47;;;24.00;62.00;;;;;;5039483;28;20026;-15
2022/07/26 05:07:46;;;;;;;18.42;5.65;;;24.10;61.90;;;;;;5039623;28;20108;-15
2022/07/26 05:10:13;;;;;;;6.93;3.40;;;24.20;62.50;;;;;;5039312;28;20026;-15
2022/07/26 05:12:39;;;;;;;8.70;3.90;;;24.30;61.80;;;;;;5039432;28;20104;-14
2022/07/26 05:15:07;;;;;;;12.63;5.07;;;24.40;61.70;;;;;;5039030;28;20514;-14
2022/07/26 05:17:33;;;;;;;7.70;3.88;;;24.50;61.60;;;;;;5039079;28;20053;-14
2022/07/26 05:19:59;;;;;;;8.35;4.40;;;24.60;61.20;;;;;;5039103;28;20102;-14
2022/07/26 05:22:25;;;;;;;6.15;3.58;;;24.70;60.80;;;;;;5039153;28;20021;-14
2022/07/26 05:24:51;;;;;;;8.52;3.95;;;24.80;60.50;;;;;;5039411;28;20033;-15
2022/07/26 05:27:16;;;;;;;7.38;4.15;;;24.90;60.30;;;;;;5039412;28;20034;-14
2022/07/26 05:29:42;;;;;;;9.10;4.00;;;25.00;60.10;;;;;;5035841;28;20108;-16
2022/07/26 05:32:08;;;;;;;8.60;4.32;;;25.10;59.90;;;;;;5035761;28;20033;-15
2022/07/26 05:34:34;;;;;;;8.25;4.10;;;25.20;59.80;;;;;;5035724;28;20042;-14
2022/07/26 05:37:00;;;;;;;13.27;4.03;;;25.40;59.60;;;;;;5036119;28;20053;-14
2022/07/26 05:39:26;;;;;;;12.95;4.72;;;25.50;59.30;;;;;;5036064;28;20087;-14
2022/07/26 05:41:52;;;;;;;6.90;4.05;;;25.60;59.10;;;;;;5035843;28;20018;-14
2022/07/26 05:44:18;;;;;;;6.32;3.90;;;25.70;58.80;;;;;;5035489;28;20052;-14
2022/07/26 05:46:44;;;;;;;7.32;3.78;;;25.80;58.50;;;;;;5035572;28;20022;-14
2022/07/26 05:49:10;;;;;;;5.32;3.80;;;25.90;58.40;;;;;;5035843;28;20064;-16
2022/07/26 05:51:36;;;;;;;8.65;4.00;;;26.00;58.30;;;;;;5035746;28;20033;-14
2022/07/26 05:54:02;;;;;;;11.15;4.25;;;26.10;58.10;;;;;;5035886;28;20076;-15
2022/07/26 05:56:28;;;;;;;7.18;4.00;;;26.20;57.80;;;;;;5035297;28;20044;-15
2022/07/26 05:58:53;;;;;;;6.40;3.88;;;26.30;57.60;;;;;;5035421;28;20029;-15
2022/07/26 06:01:19;;;;;;;8.50;4.90;;;26.40;57.20;;;;;;5035479;28;20018;-15
2022/07/26 06:03:45;;;;;;;7.82;3.60;;;26.50;57.10;;;;;;5035529;28;20025;-14
2022/07/26 06:06:12;;;;;;;7.10;4.00;;;26.60;56.80;;;;;;5035386;28;20026;-14
2022/07/26 06:08:38;;;;;;;6.68;3.75;;;26.80;56.50;;;;;;5035025;28;20041;-14
2022/07/26 06:11:04;;;;;;;6.85;4.00;;;26.90;55.90;;;;;;5035323;28;20037;-14
2022/07/26 06:13:30;;;;;;;6.18;4.00;;;27.00;55.70;;;;;;5035103;28;20065;-14
2022/07/26 06:15:56;;;;;;;6.65;4.20;;;27.10;55.40;;;;;;5035218;28;20025;-14
2022/07/26 06:18:22;;;;;;;7.60;3.85;;;27.30;55.10;;;;;;5035203;28;20485;-14
2022/07/26 06:20:49;;;;;;;9.00;4.00;;;27.40;54.90;;;;;;5035008;28;20025;-13
2022/07/26 06:23:15;;;;;;;6.15;3.58;;;27.50;54.80;;;;;;5035137;28;20032;-14
2022/07/26 06:25:41;;;;;;;6.05;3.90;;;27.70;54.50;;;;;;5035112;28;20021;-14
2022/07/26 06:28:09;;;;;;;7.63;3.95;;;27.80;54.30;;;;;;5035086;28;20061;-14
2022/07/26 06:30:36;;;;;;;6.85;4.00;;;27.90;54.10;;;;;;5034631;28;20104;-14
2022/07/26 06:33:03;;;;;;;5.63;3.75;;;27.90;54.00;;;;;;5033441;28;20464;-14
2022/07/26 06:35:30;;;;;;;5.38;3.75;;;28.00;53.50;;;;;;5034667;28;20118;-14
2022/07/26 06:38:00;;;;;;;7.20;4.05;;;28.10;53.20;;;;;;5034646;28;20025;-14
2022/07/26 06:40:26;;;;;;;7.35;4.00;;;28.20;52.90;;;;;;5034071;28;20021;-14
2022/07/26 06:42:52;;;;;;;6.03;3.58;;;28.20;52.30;;;;;;5034823;28;20017;-13
2022/07/26 06:45:19;;;;;;;6.20;3.50;;;28.30;52.20;;;;;;5034393;28;20057;-14
2022/07/26 06:47:45;;;;;;;10.68;3.80;;;28.40;51.70;;;;;;5034377;28;20498;-14
2022/07/26 06:50:13;;;;;;;6.28;3.45;;;28.40;51.50;;;;;;5034725;28;20083;-14
2022/07/26 06:52:39;;;;;;;7.25;3.80;;;28.50;51.30;;;;;;5034601;28;20025;-14
2022/07/26 06:55:07;;;;;;;4.25;3.58;;;28.50;50.90;;;;;;5034567;28;20041;-16
2022/07/26 06:57:35;;;;;;;4.40;3.47;;;28.60;50.60;;;;;;5034448;28;20098;-15
2022/07/26 07:00:03;;;;;;;8.70;3.80;;;28.70;50.30;;;;;;5034316;28;20025;-15
2022/07/26 07:02:29;;;;;;;6.55;3.80;;;28.70;50.20;;;;;;5033876;28;20048;-16
2022/07/26 07:04:55;;;;;;;6.65;3.55;;;28.80;49.90;;;;;;5032918;28;20109;-15
2022/07/26 07:07:21;;;;;;;8.02;3.25;;;28.90;49.40;;;;;;5034074;28;20088;-14
2022/07/26 07:09:47;;;;;;;7.60;3.72;;;29.00;48.90;;;;;;5034035;28;20512;-13
2022/07/26 07:12:14;;;;;;;5.20;3.85;;;29.10;48.00;;;;;;5033952;28;20025;-14
2022/07/26 07:14:40;;;;;;;6.68;3.60;;;29.20;48.10;;;;;;5033961;28;20026;-13
2022/07/26 07:17:08;;;;;;;5.43;3.65;;;29.30;48.00;;;;;;5033767;28;20116;-13
2022/07/26 07:19:35;;;;;;;4.03;3.40;;;29.40;47.50;;;;;;5034142;28;20025;-14
2022/07/26 07:22:03;;;;;;;8.13;3.78;;;29.50;47.70;;;;;;5033836;28;20021;-14
2022/07/26 07:24:29;;;;;;;5.90;3.22;;;29.60;47.60;;;;;;5033884;28;20033;-13
2022/07/26 07:26:55;;;;;;;4.88;3.67;;;29.70;47.50;;;;;;5033666;28;20025;-14
2022/07/26 07:29:20;;;;;;;6.05;4.00;;;29.80;47.30;;;;;;5032488;28;20029;-13
2022/07/26 07:31:47;;;;;;;5.45;3.55;;;29.90;46.90;;;;;;5033486;28;20030;-14
2022/07/26 07:34:14;;;;;;;7.05;4.43;;;30.00;46.80;;;;;;5033765;28;20105;-15
2022/07/26 07:36:40;;;;;;;7.32;4.10;;;30.00;46.50;;;;;;5033674;28;20040;-14
2022/07/26 07:39:06;;;;;;;5.13;3.83;;;30.10;46.30;;;;;;5034037;28;20022;-14
2022/07/26 07:41:33;;;;;;;6.18;3.92;;;30.20;46.10;;;;;;5033539;28;20032;-14
2022/07/26 07:44:01;;;;;;;4.18;3.17;;;30.30;45.70;;;;;;5033477;28;20496;-14
2022/07/26 07:46:27;;;;;;;4.60;3.63;;;30.40;45.90;;;;;;5033290;28;20116;-14
2022/07/26 07:48:53;;;;;;;7.60;3.95;;;30.70;45.80;;;;;;5034026;28;20128;-14
2022/07/26 07:51:19;;;;;;;5.75;4.00;;;30.90;45.30;;;;;;5033546;28;20030;-14
2022/07/26 07:53:45;;;;;;;5.18;4.18;;;31.20;44.50;;;;;;5033027;28;20026;-15
2022/07/26 07:56:10;;;;;;;4.75;3.95;;;31.30;44.30;;;;;;5032226;28;20523;-14
2022/07/26 07:58:37;;;;;;;5.13;4.32;;;31.40;44.20;;;;;;5033139;28;20026;-14
2022/07/26 08:01:02;;;;;;;4.50;4.03;;;31.50;43.90;;;;;;5033336;28;20555;-14
2022/07/26 08:03:29;;;;;;;5.05;4.22;;;31.70;43.60;;;;;;5033530;28;20029;-14
2022/07/26 08:05:55;;;;;;;6.05;4.10;;;31.70;43.40;;;;;;5033407;28;20390;-14
2022/07/26 08:08:21;;;;;;;6.97;5.28;;;31.90;43.20;;;;;;5033248;28;20083;-14
2022/07/26 08:10:46;;;;;;;8.18;5.10;;;32.20;42.90;;;;;;5031905;28;20029;-14
2022/07/26 08:13:12;;;;;;;9.18;5.70;;;32.40;42.50;;;;;;5033028;28;20486;-14
2022/07/26 08:15:38;;;;;;;6.57;4.70;;;32.60;42.10;;;;;;5033038;28;20036;-13
2022/07/26 08:18:04;;;;;;;6.55;4.35;;;32.80;42.10;;;;;;5031903;28;20030;-14
2022/07/26 08:20:30;;;;;;;5.03;4.15;;;33.00;41.60;;;;;;5033083;28;20022;-13
2022/07/26 08:22:56;;;;;;;8.13;5.05;;;33.40;41.30;;;;;;5033082;28;20080;-13
2022/07/26 08:25:22;;;;;;;7.50;4.53;;;33.80;40.50;;;;;;5033255;28;20095;-14
2022/07/26 08:27:48;;;;;;;8.32;4.70;;;34.20;40.10;;;;;;5031899;28;20481;-16
2022/07/26 08:30:15;;;;;;;4.90;4.40;;;34.60;39.10;;;;;;5032675;28;20026;-15
2022/07/26 08:32:40;;;;;;;6.05;4.28;;;34.90;38.90;;;;;;5033050;28;20350;-15
2022/07/26 08:35:07;;;;;;;6.07;4.57;;;35.20;38.50;;;;;;5032862;28;20026;-15
2022/07/26 08:37:33;;;;;;;5.93;4.28;;;35.40;38.00;;;;;;5033144;28;20033;-15
2022/07/26 08:39:59;;;;;;;6.10;4.50;;;35.60;37.50;;;;;;5032901;28;20034;-15
2022/07/26 08:42:25;;;;;;;5.32;4.47;;;35.90;37.00;;;;;;5032567;28;20037;-14
2022/07/26 08:44:51;;;;;;;5.95;4.38;;;36.00;36.80;;;;;;5032801;28;20061;-14
2022/07/26 08:47:19;;;;;;;6.45;4.38;;;36.00;37.10;;;;;;5032770;28;20061;-14
2022/07/26 08:49:46;;;;;;;5.68;4.45;;;36.10;36.80;;;;;;5032460;28;20057;-14
2022/07/26 08:52:13;;;;;;;7.43;4.07;;;36.20;37.10;;;;;;5032788;28;20037;-13
2022/07/26 08:54:44;;;;;;;4.80;4.13;;;36.40;36.90;;;;;;5031285;28;20052;-14
2022/07/26 08:57:11;;;;;;;8.13;4.43;;;36.30;37.30;;;;;;5032363;28;20496;-14
2022/07/26 08:59:37;;;;;;;9.85;4.88;;;36.50;37.40;;;;;;5032736;28;20029;-14
2022/07/26 09:02:06;;;;;;;7.55;4.32;;;36.80;35.70;;;;;;5032488;28;20071;-14
2022/07/26 09:04:38;;;;;;;6.95;5.05;;;37.00;35.60;;;;;;5034729;28;20485;-13
2022/07/26 09:07:16;;;;;;;6.63;4.47;;;37.00;35.30;;;;;;5036762;28;20029;-14
2022/07/26 09:09:54;;;;;;;14.25;4.78;;;37.00;35.80;;;;;;5036415;28;20033;-14
2022/07/26 09:12:21;;;;;;;6.57;4.60;;;37.10;35.50;;;;;;5036283;28;20040;-14
2022/07/26 09:14:48;;;;;;;7.22;4.82;;;37.00;35.60;;;;;;5036196;28;20025;-13
2022/07/26 09:17:17;;;;;;;6.78;4.53;;;36.90;36.10;;;;;;5036142;28;20452;-13
2022/07/26 09:19:45;;;;;;;37.58;6.03;;;36.90;36.50;;;;;;5036440;28;20079;-13
2022/07/26 09:22:13;;;;;;;6.85;4.22;;;37.00;36.20;;;;;;5036083;28;20018;-13
2022/07/26 09:24:42;;;;;;;4.53;3.97;;;37.30;36.10;;;;;;5036070;28;20029;-13
2022/07/26 09:27:14;;;;;;;6.70;4.38;;;37.70;35.40;;;;;;5036230;28;20108;-13
2022/07/26 09:29:48;;;;;;;6.75;4.63;;;38.00;34.20;;;;;;5036026;28;20109;-14
2022/07/26 09:32:18;;;;;;;5.40;4.30;;;38.40;33.60;;;;;;5035506;28;20034;-16
2022/07/26 09:35:10;;;;;;;6.50;4.25;;;38.50;33.10;;;;;;5036400;28;20085;-14
2022/07/26 09:37:45;;;;;;;4.78;4.22;;;38.60;33.00;;;;;;5033156;28;20041;-13
2022/07/26 09:40:14;;;;;;;4.90;4.40;;;38.70;32.90;;;;;;5036115;28;20056;-13
2022/07/26 09:42:54;;;;;;;5.38;4.10;;;39.00;32.20;;;;;;5034504;28;20482;-14
2022/07/26 09:45:20;;;;;;;5.15;4.10;;;39.20;32.10;;;;;;5035417;28;20049;-13
2022/07/26 09:47:46;;;;;;;8.85;4.70;;;39.40;31.80;;;;;;5035648;28;20022;-13
2022/07/26 09:50:21;;;;;;;15.30;4.65;;;39.50;31.70;;;;;;5035659;28;20032;-14
2022/07/26 09:53:08;;;;;;;7.95;4.32;;;39.70;31.20;;;;;;5034274;28;20025;-13
2022/07/26 09:55:56;;;;;;;13.85;4.47;;;39.90;30.20;;;;;;5035509;28;20029;-13
2022/07/26 09:58:23;;;;;;;8.73;4.40;;;40.00;30.90;;;;;;5035048;28;20109;-13
2022/07/26 10:00:50;;;;;;;6.40;4.63;;;40.10;31.00;;;;;;5035365;28;20475;-13
2022/07/26 10:03:15;;;;;;;7.47;4.60;;;40.30;30.60;;;;;;5034594;28;20392;-13
2022/07/26 10:05:41;;;;;;;4.78;4.28;;;40.40;29.80;;;;;;5035557;28;20496;-13
2022/07/26 10:08:09;;;;;;;8.35;4.25;;;40.50;28.80;;;;;;5035532;28;20083;-13
2022/07/26 10:10:47;;;;;;;6.28;4.75;;;40.40;29.30;;;;;;5035001;28;20022;-13
2022/07/26 10:13:13;;;;;;;7.38;4.45;;;40.50;29.70;;;;;;5035292;28;20036;-13
2022/07/26 10:15:46;;;;;;;6.47;4.35;;;40.60;29.40;;;;;;5034329;28;20036;-13
2022/07/26 10:18:36;;;;;;;6.13;4.70;;;40.70;29.40;;;;;;5035162;28;20416;-14
2022/07/26 10:21:22;;;;;;;6.43;4.60;;;40.80;28.50;;;;;;5035418;28;20029;-13
2022/07/26 10:23:49;;;;;;;6.00;4.25;;;40.90;28.90;;;;;;5035389;28;20087;-13
2022/07/26 10:26:30;;;;;;;6.25;4.78;;;40.90;29.50;;;;;;5035007;28;20033;-14
2022/07/26 10:29:16;;;;;;;8.57;4.90;;;41.00;28.80;;;;;;5035219;28;20025;-13
2022/07/26 10:31:43;;;;;;;7.47;4.65;;;41.10;29.60;;;;;;5030930;28;20038;-13
2022/07/26 10:34:09;;;;;;;8.65;5.05;;;41.00;29.30;;;;;;5035023;28;20030;-13
2022/07/26 10:36:38;;;;;;;6.07;4.70;;;40.70;29.80;;;;;;5034589;28;20559;-13
2022/07/26 10:39:15;;;;;;;7.22;5.20;;;40.50;30.50;;;;;;5034796;28;20124;-13
2022/07/26 10:41:46;;;;;;;8.07;5.18;;;40.30;31.00;;;;;;5034773;28;20014;-13
2022/07/26 10:44:15;;;;;;;7.97;4.97;;;40.00;30.80;;;;;;5034722;28;20041;-13
2022/07/26 10:47:07;;;;;;;10.10;4.88;;;39.90;31.20;;;;;;5034832;28;20469;-13
2022/07/26 10:49:38;;;;;;;6.18;5.05;;;40.20;30.60;;;;;;5032131;28;20057;-13
2022/07/26 10:52:15;;;;;;;6.60;4.93;;;40.20;30.80;;;;;;5034319;28;20080;-13
2022/07/26 10:54:56;;;;;;;6.43;4.75;;;40.40;30.10;;;;;;5034725;28;20032;-14
2022/07/26 10:57:28;;;;;;;7.50;4.53;;;40.80;29.60;;;;;;5034283;28;20112;-14
2022/07/26 10:59:56;;;;;;;5.50;4.60;;;40.90;29.60;;;;;;5034313;28;20044;-13
2022/07/26 11:02:30;;;;;;;7.57;5.18;;;41.20;29.30;;;;;;5034143;28;20025;-13
2022/07/26 11:05:11;;;;;;;7.53;4.82;;;41.10;29.70;;;;;;5034246;28;20381;-14
2022/07/26 11:08:10;;;;;;;8.32;4.95;;;40.90;30.20;;;;;;5034191;28;20535;-13
2022/07/26 11:10:41;;;;;;;11.50;4.75;;;40.60;29.80;;;;;;4992641;28;20173;-13
2022/07/26 11:13:14;;;;;;;5.93;4.90;;;40.80;29.60;;;;;;4993113;28;20069;-14
2022/07/26 11:15:43;;;;;;;9.70;4.70;;;40.90;30.20;;;;;;4992531;28;20026;-13
2022/07/26 11:18:18;;;;;;;5.28;4.18;;;40.90;30.00;;;;;;4992729;28;20061;-13
2022/07/26 11:20:46;;;;;;;7.22;4.40;;;41.20;30.10;;;;;;4992619;28;20031;-13
2022/07/26 11:23:26;;;;;;;7.53;4.10;;;41.50;29.70;;;;;;4992299;28;20398;-13
2022/07/26 11:26:19;;;;;;;8.27;4.55;;;41.70;29.50;;;;;;4992396;28;20034;-13
2022/07/26 11:28:48;;;;;;;8.65;4.50;;;41.40;29.10;;;;;;4989425;28;20041;-13
2022/07/26 11:31:14;;;;;;;6.05;4.30;;;40.90;30.20;;;;;;4992536;28;20029;-13
2022/07/26 11:33:43;;;;;;;5.18;3.90;;;40.60;30.00;;;;;;4976340;28;20073;-13
2022/07/26 11:36:10;;;;;;;8.25;4.35;;;40.90;30.10;;;;;;4992239;28;20438;-13
2022/07/26 11:38:52;;;;;;;6.30;4.68;;;41.00;30.00;;;;;;4992065;28;20033;-14
2022/07/26 11:41:29;;;;;;;5.38;3.70;;;40.60;30.60;;;;;;4992584;28;20125;-15
2022/07/26 11:43:56;;;;;;;6.90;4.15;;;40.40;30.10;;;;;;4992058;28;20030;-14
2022/07/26 11:46:31;;;;;;;6.25;4.45;;;40.70;29.80;;;;;;5016051;28;20037;-13
2022/07/26 11:48:57;;;;;;;5.45;4.00;;;40.70;30.60;;;;;;5034117;28;20025;-13
2022/07/26 11:51:24;;;;;;;6.47;4.28;;;40.90;30.60;;;;;;5033396;28;20033;-13
2022/07/26 11:53:58;;;;;;;6.47;4.30;;;40.40;30.60;;;;;;5033635;28;20030;-14
2022/07/26 11:56:26;;;;;;;5.88;4.38;;;40.20;31.00;;;;;;5033144;28;20037;-12
2022/07/26 11:58:55;;;;;;;6.45;4.65;;;40.30;31.00;;;;;;5033515;28;20033;-11
2022/07/26 12:01:23;;;;;;;8.40;5.40;;;40.40;30.80;;;;;;5033428;28;20018;-12
2022/07/26 12:03:54;;;;;;;7.75;5.13;;;40.20;30.90;;;;;;5032007;28;20039;-13
2022/07/26 12:06:23;;;;;;;9.33;5.47;;;39.60;31.50;;;;;;5033151;28;20504;-12
2022/07/26 12:08:50;;;;;;;6.53;4.97;;;39.90;31.70;;;;;;5033456;28;20025;-13
2022/07/26 12:11:18;;;;;;;5.80;5.15;;;40.60;30.50;;;;;;5033356;28;20100;-13
2022/07/26 12:14:01;;;;;;;5.60;4.82;;;41.00;29.70;;;;;;5033037;28;20033;-13
2022/07/26 12:16:43;;;;;;;7.05;5.30;;;41.50;29.30;;;;;;5033085;28;20389;-13
2022/07/26 12:19:29;;;;;;;8.25;5.20;;;41.70;29.40;;;;;;5033432;28;20059;-13
2022/07/26 12:22:06;;;;;;;8.43;5.32;;;41.70;29.50;;;;;;5033118;28;20079;-13
2022/07/26 12:24:43;;;;;;;10.10;5.82;;;41.40;29.70;;;;;;5032913;28;20075;-14
2022/07/26 12:27:23;;;;;;;8.88;5.50;;;41.00;29.90;;;;;;5033441;28;20041;-13
2022/07/26 12:30:12;;;;;;;10.10;5.75;;;41.00;30.10;;;;;;5033251;28;20546;-13
2022/07/26 12:32:41;;;;;;;8.25;5.82;;;41.00;30.40;;;;;;5032652;28;20033;-14
2022/07/26 12:35:09;;;;;;;11.38;6.47;;;41.00;30.60;;;;;;5032904;28;20061;-13
2022/07/26 12:37:56;;;;;;;7.97;6.18;;;41.10;30.50;;;;;;5033174;28;20099;-13
2022/07/26 12:40:27;;;;;;;9.20;6.95;;;40.90;30.70;;;;;;5036756;28;20017;-13
2022/07/26 12:42:56;;;;;;;9.60;6.63;;;40.20;31.90;;;;;;5035629;28;20040;-13
2022/07/26 12:45:28;;;;;;;11.32;6.70;;;40.30;32.20;;;;;;5036668;28;20049;-13
2022/07/26 12:47:56;;;;;;;8.00;5.60;;;40.40;32.30;;;;;;5036944;28;20495;-13
2022/07/26 12:50:24;;;;;;;7.28;5.90;;;40.60;32.00;;;;;;5036676;28;20620;-13
2022/07/26 12:52:51;;;;;;;9.35;6.28;;;40.40;31.50;;;;;;5036881;28;20029;-12